createdAt,value
2023-01-08T00:02:45.204Z,3.10
2023-01-08T00:07:48.510Z,3.10
2023-01-08T00:12:51.787Z,3.30
2023-01-08T00:17:56.438Z,3.90
2023-01-08T00:22:59.710Z,3.20
2023-01-08T00:28:02.955Z,3.00
2023-01-08T00:33:07.888Z,2.80
2023-01-08T00:38:11.773Z,2.20
2023-01-08T00:43:15.041Z,2.60
2023-01-08T00:48:19.697Z,2.60
2023-01-08T00:53:23.788Z,2.40
2023-01-08T00:58:27.011Z,2.40
2023-01-08T01:03:32.534Z,0.60
2023-01-08T01:08:35.901Z,2.30
2023-01-08T01:13:39.199Z,2.40
2023-01-08T01:18:44.248Z,2.30
2023-01-08T01:23:47.519Z,2.20
2023-01-08T01:28:52.543Z,2.20
2023-01-08T01:33:57.383Z,2.20
2023-01-08T01:39:00.661Z,2.30
2023-01-08T01:44:38.992Z,3.00
2023-01-08T01:49:55.048Z,2.20
2023-01-08T01:55:01.041Z,2.20
2023-01-08T02:00:07.171Z,2.10
2023-01-08T02:05:16.664Z,2.00
2023-01-08T02:10:30.370Z,1.90
2023-01-08T02:15:40.020Z,2.20
2023-01-08T02:20:48.869Z,2.20
2023-01-08T02:26:16.946Z,2.30
2023-01-08T02:31:22.663Z,2.20
2023-01-08T02:36:33.632Z,2.00
2023-01-08T02:41:53.120Z,0.60
2023-01-08T02:46:58.641Z,1.80
2023-01-08T02:52:04.280Z,1.90
2023-01-08T02:57:13.373Z,2.10
2023-01-08T03:02:17.517Z,1.70
2023-01-08T03:07:21.262Z,1.80
2023-01-08T03:12:31.877Z,1.80
2023-01-08T03:17:38.222Z,1.80
2023-01-08T03:22:43.883Z,1.70
2023-01-08T03:27:51.958Z,1.60
2023-01-08T03:32:57.003Z,1.60
2023-01-08T03:38:07.299Z,1.60
2023-01-08T03:43:12.277Z,1.50
2023-01-08T03:48:15.966Z,1.50
2023-01-08T03:53:19.322Z,1.70
2023-01-08T03:58:23.914Z,1.50
2023-01-08T04:03:27.234Z,1.60
2023-01-08T04:08:30.716Z,1.50
2023-01-08T04:13:37.780Z,1.70
2023-01-08T04:18:41.205Z,-1.20
2023-01-08T04:23:44.504Z,1.30
2023-01-08T04:28:49.232Z,1.40
2023-01-08T04:33:52.539Z,1.30
2023-01-08T04:38:55.791Z,1.30
2023-01-08T04:44:00.525Z,1.40
2023-01-08T04:49:03.853Z,1.30
2023-01-08T04:54:07.199Z,1.40
2023-01-08T04:59:11.902Z,1.30
2023-01-08T05:04:15.190Z,1.30
2023-01-08T05:09:18.475Z,1.20
2023-01-08T05:14:23.127Z,1.00
2023-01-08T05:19:26.472Z,0.70
2023-01-08T05:24:29.794Z,1.00
2023-01-08T05:29:34.462Z,1.00
2023-01-08T05:34:37.847Z,1.00
2023-01-08T05:39:41.119Z,0.80
2023-01-08T05:44:45.795Z,0.60
2023-01-08T05:49:49.070Z,0.30
2023-01-08T05:54:52.521Z,0.30
2023-01-08T05:59:57.454Z,0.50
2023-01-08T06:05:00.749Z,0.50
2023-01-08T06:10:04.052Z,0.50
2023-01-08T06:15:11.463Z,0.70
2023-01-08T06:20:16.757Z,0.70
2023-01-08T06:25:20.137Z,0.70
2023-01-08T06:30:24.822Z,0.60
2023-01-08T06:35:28.708Z,0.40
2023-01-08T06:40:31.947Z,0.60
2023-01-08T06:45:36.578Z,0.80
2023-01-08T06:50:39.781Z,0.80
2023-01-08T06:55:42.984Z,0.80
2023-01-08T07:00:47.619Z,0.80
2023-01-08T07:05:50.999Z,0.80
2023-01-08T07:10:55.417Z,0.80
2023-01-08T07:16:00.048Z,0.80
2023-01-08T07:21:04.018Z,0.80
2023-01-08T07:26:08.560Z,1.00
2023-01-08T07:31:13.225Z,1.10
2023-01-08T07:36:16.792Z,1.10
2023-01-08T07:41:20.078Z,1.10
2023-01-08T07:46:24.801Z,1.20
2023-01-08T07:51:28.199Z,1.10
2023-01-08T07:56:31.496Z,1.20
2023-01-08T08:01:36.233Z,1.30
2023-01-08T08:06:39.669Z,1.40
2023-01-08T08:11:43.247Z,1.40
2023-01-08T08:16:47.893Z,1.30
2023-01-08T08:21:51.180Z,1.40
2023-01-08T08:26:54.583Z,1.90
2023-01-08T08:31:59.244Z,1.50
2023-01-08T08:37:02.573Z,1.50
2023-01-08T08:42:06.158Z,1.60
2023-01-08T08:47:10.966Z,1.70
2023-01-08T08:52:14.321Z,1.70
2023-01-08T08:57:17.693Z,1.90
2023-01-08T09:02:22.435Z,2.20
2023-01-08T09:07:25.799Z,2.10
2023-01-08T09:12:29.161Z,2.30
2023-01-08T09:17:34.019Z,2.00
2023-01-08T09:22:37.363Z,2.20
2023-01-08T09:27:40.695Z,2.30
2023-01-08T09:32:45.393Z,2.30
2023-01-08T09:37:52.146Z,2.40
2023-01-08T09:42:58.611Z,2.50
2023-01-08T09:48:07.027Z,2.40
2023-01-08T09:53:15.199Z,2.60
2023-01-08T09:58:29.321Z,2.70
2023-01-08T10:03:42.366Z,2.70
2023-01-08T10:13:57.243Z,2.80
2023-01-08T10:19:03.902Z,2.80
2023-01-08T10:24:08.051Z,2.90
2023-01-08T10:29:14.855Z,2.90
2023-01-08T10:34:29.872Z,3.20
2023-01-08T10:39:33.456Z,3.20
2023-01-08T10:44:37.720Z,3.20
2023-01-08T10:49:45.441Z,3.20
2023-01-08T10:54:48.659Z,3.10
2023-01-08T10:59:52.183Z,3.20
2023-01-08T11:04:57.096Z,3.20
2023-01-08T11:10:00.315Z,3.30
2023-01-08T11:15:04.633Z,3.30
2023-01-08T11:20:11.595Z,3.50
2023-01-08T11:25:18.015Z,3.50
2023-01-08T11:30:23.020Z,3.40
2023-01-08T11:35:30.178Z,3.30
2023-01-08T11:40:42.725Z,3.40
2023-01-08T11:46:00.419Z,3.40
2023-01-08T11:51:34.997Z,3.50
2023-01-08T11:56:54.199Z,3.50
2023-01-08T12:02:06.328Z,3.50
2023-01-08T12:07:20.261Z,4.00
2023-01-08T12:12:39.984Z,4.00
2023-01-08T12:18:02.792Z,4.10
2023-01-08T12:23:21.376Z,4.10
2023-01-08T12:28:37.436Z,4.10
2023-01-08T12:33:45.612Z,4.10
2023-01-08T12:38:56.075Z,4.10
2023-01-08T12:44:02.820Z,4.30
2023-01-08T12:49:09.078Z,4.40
2023-01-08T12:54:23.842Z,4.50
2023-01-08T12:59:40.107Z,4.40
2023-01-08T13:04:44.589Z,4.30
2023-01-08T13:09:56.119Z,4.20
2023-01-08T13:14:59.500Z,4.20
2023-01-08T13:20:06.829Z,4.10
2023-01-08T13:25:29.305Z,4.10
2023-01-08T13:30:39.473Z,3.90
2023-01-08T13:35:42.733Z,3.90
2023-01-08T13:41:25.169Z,4.00
2023-01-08T13:46:29.600Z,3.90
2023-01-08T13:51:42.909Z,4.00
2023-01-08T13:56:49.022Z,3.90
2023-01-08T14:01:56.095Z,3.90
2023-01-08T14:07:15.755Z,3.90
2023-01-08T14:12:22.637Z,3.90
2023-01-08T14:17:31.516Z,3.90
2023-01-08T14:22:36.596Z,4.00
2023-01-08T14:27:41.421Z,4.00
2023-01-08T14:32:45.343Z,4.00
2023-01-08T14:37:48.678Z,4.00
2023-01-08T14:42:53.737Z,4.00
2023-01-08T14:48:00.847Z,4.00
2023-01-08T14:53:09.074Z,4.10
2023-01-08T14:58:18.380Z,4.30
2023-01-08T15:03:34.656Z,5.60
2023-01-08T15:08:39.754Z,4.30
2023-01-08T15:13:48.483Z,4.30
2023-01-08T15:19:01.536Z,4.40
2023-01-08T15:24:06.805Z,4.30
2023-01-08T15:29:19.659Z,4.40
2023-01-08T15:34:23.043Z,4.30
2023-01-08T15:39:26.330Z,4.10
2023-01-08T15:44:30.943Z,4.30
2023-01-08T15:49:34.185Z,4.30
2023-01-08T15:54:39.235Z,4.20
2023-01-08T15:59:43.812Z,4.30
2023-01-08T16:04:52.240Z,4.20
2023-01-08T16:09:55.471Z,4.20
2023-01-08T16:15:00.091Z,4.20
2023-01-08T16:20:03.428Z,4.20
2023-01-08T16:25:09.341Z,4.20
2023-01-08T16:30:15.837Z,4.20
2023-01-08T16:35:19.269Z,4.10
2023-01-08T16:40:22.633Z,4.10
2023-01-08T16:45:27.251Z,4.20
2023-01-08T16:50:31.311Z,4.10
2023-01-08T16:55:34.727Z,4.10
2023-01-08T17:00:40.539Z,4.00
2023-01-08T17:05:43.792Z,4.00
2023-01-08T17:10:47.390Z,4.70
2023-01-08T17:15:53.201Z,4.00
2023-01-08T17:20:56.773Z,3.90
2023-01-08T17:26:04.167Z,4.10
2023-01-08T17:31:11.415Z,3.80
2023-01-08T17:36:16.369Z,3.70
2023-01-08T17:41:37.749Z,3.80
2023-01-08T17:46:45.380Z,3.80
2023-01-08T17:51:48.751Z,3.80
2023-01-08T17:56:53.707Z,3.70
2023-01-08T18:01:58.907Z,3.70
2023-01-08T18:07:02.474Z,3.70
2023-01-08T18:12:06.188Z,3.50
2023-01-08T18:17:10.858Z,3.50
2023-01-08T18:22:14.157Z,3.50
2023-01-08T18:27:17.436Z,3.50
2023-01-08T18:32:26.020Z,2.30
2023-01-08T18:37:29.269Z,3.40
2023-01-08T18:42:33.314Z,3.40
2023-01-08T18:47:38.553Z,3.40
2023-01-08T18:52:42.107Z,3.40
2023-01-08T18:57:45.604Z,3.40
2023-01-08T19:02:51.980Z,3.40
2023-01-08T19:07:55.393Z,3.40
2023-01-08T19:12:58.907Z,3.40
2023-01-08T19:18:04.976Z,3.40
2023-01-08T19:23:08.313Z,3.40
2023-01-08T19:28:11.588Z,3.40
2023-01-08T19:33:16.959Z,3.50
2023-01-08T19:38:21.194Z,3.40
2023-01-08T19:43:42.928Z,3.40
2023-01-08T19:48:47.619Z,3.40
2023-01-08T19:53:51.015Z,3.30
2023-01-08T19:58:55.898Z,3.40
2023-01-08T20:04:00.647Z,3.40
2023-01-08T20:09:04.324Z,3.40
2023-01-08T20:14:07.842Z,3.50
2023-01-08T20:19:12.676Z,3.50
2023-01-08T20:24:16.352Z,3.50
2023-01-08T20:29:19.755Z,3.50
2023-01-08T20:34:25.340Z,3.50
2023-01-08T20:39:28.922Z,3.40
2023-01-08T20:44:32.970Z,3.50
2023-01-08T20:49:37.947Z,3.60
2023-01-08T20:54:41.742Z,3.50
2023-01-08T20:59:45.014Z,3.60
2023-01-08T21:04:50.382Z,3.60
2023-01-08T21:09:53.693Z,3.60
2023-01-08T21:14:56.986Z,3.70
2023-01-08T21:20:01.833Z,3.60
2023-01-08T21:25:06.117Z,3.60
2023-01-08T21:30:10.842Z,3.60
2023-01-08T21:35:15.847Z,3.50
2023-01-08T21:40:19.552Z,3.50
2023-01-08T21:45:29.782Z,3.70
2023-01-08T21:50:34.797Z,3.70
2023-01-08T21:55:38.082Z,3.70
2023-01-08T22:00:41.496Z,3.70
2023-01-08T22:05:46.820Z,0.60
2023-01-08T22:10:50.267Z,3.70
2023-01-08T22:16:02.456Z,3.70
2023-01-08T22:21:09.608Z,3.70
2023-01-08T22:26:14.498Z,3.70
2023-01-08T22:31:18.369Z,3.70
2023-01-08T22:36:23.577Z,3.70
2023-01-08T22:41:27.067Z,3.80
2023-01-08T22:46:30.624Z,3.80
2023-01-08T22:51:36.162Z,3.70
2023-01-08T22:56:39.953Z,3.70
2023-01-08T23:01:43.424Z,3.70
2023-01-08T23:06:48.197Z,3.60
2023-01-08T23:11:51.506Z,3.70
2023-01-08T23:16:54.971Z,3.60
2023-01-08T23:21:59.856Z,3.50
2023-01-08T23:27:03.216Z,3.50
2023-01-08T23:32:06.873Z,3.60
2023-01-08T23:37:11.676Z,3.80
2023-01-08T23:42:15.537Z,3.70
2023-01-08T23:47:18.824Z,3.80
2023-01-08T23:52:23.531Z,3.80
2023-01-08T23:57:27.026Z,3.70
